Orbital elements of FENGYUN 1C DEB
| Launched | 9 May 1999 |
| Flight ended | – |
| Launch site | Taiyuan Space Center, PRC |
| Owner | People's Republic of China |
| NORAD ID | 29786 |
| Date fetched |
Epoch osculation |
Inc. [°] |
Ecc. | RA asc node [hr] |
Arg Peri. [°] |
Mean anom [°] |
Mean motion [rev/day] |
Abs. mag |
| Date fetched |
Epoch osculation |
Inc. [°] |
Ecc. | RA asc node [hr] |
Arg Peri. [°] |
Mean anom [°] |
Mean motion [rev/day] |
Abs. mag |
| 2026 May 06 17:57 | 2026 May 05 06:48:29 | 98.7258 | 0.00766 | 9.5401 | 256.4142 | 165.1643 | 14.09179 | – |
| 2026 May 05 17:57 | 2026 May 05 06:48:29 | 98.7258 | 0.00766 | 9.5401 | 256.4142 | 165.1643 | 14.09179 | – |
| 2026 May 04 17:57 | 2026 Apr 30 00:32:32 | 98.7262 | 0.00765 | 9.2003 | 271.5261 | 165.1643 | 14.09179 | – |
| 2026 May 03 17:57 | 2026 Apr 30 00:32:32 | 98.7262 | 0.00765 | 9.2003 | 271.5261 | 165.1643 | 14.09179 | – |
| 2026 May 02 17:57 | 2026 Apr 30 00:32:32 | 98.7262 | 0.00765 | 9.2003 | 271.5261 | 165.1643 | 14.09179 | – |
| 2026 May 01 17:56 | 2026 Apr 30 00:32:32 | 98.7262 | 0.00765 | 9.2003 | 271.5261 | 165.1643 | 14.09179 | – |
| 2026 Apr 30 17:56 | 2026 Apr 30 00:32:32 | 98.7262 | 0.00765 | 9.2003 | 271.5261 | 165.1643 | 14.09179 | – |
| 2026 Apr 29 17:57 | 2026 Apr 24 01:19:21 | 98.7270 | 0.00766 | 8.8147 | 288.6873 | 165.1643 | 14.09179 | – |
| 2026 Apr 28 17:56 | 2026 Apr 24 01:19:21 | 98.7270 | 0.00766 | 8.8147 | 288.6873 | 165.1643 | 14.09179 | – |
| 2026 Apr 27 17:58 | 2026 Apr 24 01:19:21 | 98.7270 | 0.00766 | 8.8147 | 288.6873 | 165.1643 | 14.09179 | – |
| 2026 Apr 26 17:58 | 2026 Apr 24 01:19:21 | 98.7270 | 0.00766 | 8.8147 | 288.6873 | 165.1643 | 14.09179 | – |
| 2026 Apr 25 17:58 | 2026 Apr 24 01:19:21 | 98.7270 | 0.00766 | 8.8147 | 288.6873 | 165.1643 | 14.09179 | – |
| 2026 Apr 24 17:59 | 2026 Apr 24 01:19:21 | 98.7270 | 0.00766 | 8.8147 | 288.6873 | 165.1643 | 14.09179 | – |
| 2026 Apr 23 17:57 | 2026 Apr 19 12:56:26 | 98.7276 | 0.00767 | 8.5230 | 301.6463 | 165.1643 | 14.09179 | – |
| 2026 Apr 22 17:57 | 2026 Apr 19 12:56:26 | 98.7276 | 0.00767 | 8.5230 | 301.6463 | 165.1643 | 14.09179 | – |
| 2026 Apr 21 17:57 | 2026 Apr 19 12:56:26 | 98.7276 | 0.00767 | 8.5230 | 301.6463 | 165.1643 | 14.09179 | – |
| 2026 Apr 20 17:57 | 2026 Apr 19 12:56:26 | 98.7276 | 0.00767 | 8.5230 | 301.6463 | 165.1643 | 14.09179 | – |
| 2026 Apr 19 17:58 | 2026 Apr 19 12:56:26 | 98.7276 | 0.00767 | 8.5230 | 301.6463 | 165.1643 | 14.09179 | – |
| 2026 Apr 18 17:56 | 2026 Apr 12 23:30:42 | 98.7282 | 0.00769 | 8.0991 | 320.4534 | 165.1643 | 14.09179 | – |
| 2026 Apr 16 17:57 | 2026 Apr 12 23:30:42 | 98.7282 | 0.00769 | 8.0991 | 320.4534 | 165.1643 | 14.09179 | – |
| 2026 Apr 14 17:57 | 2026 Apr 12 23:30:42 | 98.7282 | 0.00769 | 8.0991 | 320.4534 | 165.1643 | 14.09179 | – |
| 2026 Apr 13 17:57 | 2026 Apr 12 23:30:42 | 98.7282 | 0.00769 | 8.0991 | 320.4534 | 165.1643 | 14.09179 | – |
| 2026 Apr 12 17:57 | 2026 Apr 08 07:01:48 | 98.7290 | 0.00772 | 7.7963 | 333.8171 | 165.1643 | 14.09179 | – |
| 2026 Apr 11 17:57 | 2026 Apr 08 07:01:48 | 98.7290 | 0.00772 | 7.7963 | 333.8171 | 165.1643 | 14.09179 | – |
| 2026 Apr 10 17:58 | 2026 Apr 08 07:01:48 | 98.7290 | 0.00772 | 7.7963 | 333.8171 | 165.1643 | 14.09179 | – |
| 2026 Apr 09 18:01 | 2026 Apr 08 07:01:48 | 98.7290 | 0.00772 | 7.7963 | 333.8171 | 165.1643 | 14.09179 | – |